createdAt,value
2022-08-02T00:01:08.083Z,17.69
2022-08-02T00:03:37.293Z,17.73
2022-08-02T00:06:07.007Z,17.54
2022-08-02T00:08:36.264Z,17.53
2022-08-02T00:11:05.555Z,17.32
2022-08-02T00:13:34.761Z,17.32
2022-08-02T00:16:04.219Z,17.25
2022-08-02T00:18:35.011Z,17.22
2022-08-02T00:21:04.291Z,17.31
2022-08-02T00:23:33.817Z,17.28
2022-08-02T00:26:22.972Z,17.30
2022-08-02T00:28:52.262Z,17.24
2022-08-02T00:31:21.643Z,17.33
2022-08-02T00:34:27.735Z,17.10
2022-08-02T00:36:41.405Z,16.98
2022-08-02T00:39:34.712Z,17.02
2022-08-02T00:42:00.142Z,17.05
2022-08-02T00:44:29.267Z,17.24
2022-08-02T00:46:58.622Z,17.48
2022-08-02T00:49:29.388Z,17.40
2022-08-02T00:51:58.625Z,17.39
2022-08-02T00:54:27.909Z,17.33
2022-08-02T00:56:57.166Z,17.39
2022-08-02T00:59:26.437Z,17.58
2022-08-02T01:01:58.278Z,17.64
2022-08-02T01:04:31.584Z,17.63
2022-08-02T01:07:13.621Z,17.78
2022-08-02T01:09:43.690Z,17.82
2022-08-02T01:12:14.361Z,17.84
2022-08-02T01:14:47.567Z,17.73
2022-08-02T01:17:30.238Z,17.74
2022-08-02T01:20:19.341Z,17.76
2022-08-02T01:23:10.817Z,17.68
2022-08-02T01:26:04.266Z,17.67
2022-08-02T01:28:41.872Z,17.75
2022-08-02T01:31:20.299Z,17.86
2022-08-02T01:33:58.159Z,17.98
2022-08-02T01:36:39.338Z,18.00
2022-08-02T01:39:26.277Z,17.73
2022-08-02T01:41:59.215Z,17.73
2022-08-02T01:44:34.454Z,17.79
2022-08-02T01:47:07.515Z,17.82
2022-08-02T01:49:41.063Z,17.85
2022-08-02T01:52:24.922Z,18.21
2022-08-02T01:55:02.791Z,18.31
2022-08-02T01:57:41.889Z,18.29
2022-08-02T02:00:14.812Z,18.04
2022-08-02T02:02:47.515Z,18.10
2022-08-02T02:05:20.531Z,18.17
2022-08-02T02:07:53.484Z,18.09
2022-08-02T02:10:28.271Z,17.91
2022-08-02T02:13:04.297Z,17.85
2022-08-02T02:15:37.080Z,17.80
2022-08-02T02:18:13.876Z,17.79
2022-08-02T02:20:44.541Z,17.85
2022-08-02T02:23:15.094Z,17.86
2022-08-02T02:25:47.927Z,17.96
2022-08-02T02:28:24.348Z,17.97
2022-08-02T02:31:01.834Z,18.07
2022-08-02T02:33:31.952Z,18.05
2022-08-02T02:36:03.994Z,18.01
2022-08-02T02:38:35.349Z,17.95
2022-08-02T02:41:06.858Z,18.01
2022-08-02T02:43:39.205Z,18.00
2022-08-02T02:46:11.365Z,17.99
2022-08-02T02:48:42.265Z,18.00
2022-08-02T02:51:13.811Z,17.99
2022-08-02T02:54:33.645Z,18.07
2022-08-02T02:56:38.193Z,18.04
2022-08-02T02:59:09.726Z,18.06
2022-08-02T03:01:57.335Z,18.09
2022-08-02T03:04:56.226Z,18.16
2022-08-02T03:07:19.359Z,18.15
2022-08-02T03:09:54.214Z,18.16
2022-08-02T03:12:31.546Z,18.10
2022-08-02T03:15:02.399Z,18.15
2022-08-02T03:17:45.063Z,18.13
2022-08-02T03:20:17.792Z,18.15
2022-08-02T03:22:48.178Z,18.01
2022-08-02T03:25:20.511Z,18.02
2022-08-02T03:27:49.886Z,18.07
2022-08-02T03:30:20.070Z,18.07
2022-08-02T03:32:51.204Z,18.14
2022-08-02T03:35:24.469Z,18.09
2022-08-02T03:37:55.356Z,18.08
2022-08-02T03:40:26.413Z,18.02
2022-08-02T03:42:56.663Z,17.95
2022-08-02T03:45:26.979Z,17.87
2022-08-02T03:47:59.101Z,17.76
2022-08-02T03:50:28.932Z,17.72
2022-08-02T03:52:59.153Z,17.61
2022-08-02T03:55:28.405Z,17.68
2022-08-02T03:57:57.838Z,17.74
2022-08-02T04:00:27.055Z,17.76
2022-08-02T04:02:57.815Z,17.77
2022-08-02T04:05:27.978Z,17.77
2022-08-02T04:08:02.424Z,17.72
2022-08-02T04:11:04.294Z,17.75
2022-08-02T04:13:37.186Z,17.84
2022-08-02T04:16:13.930Z,17.84
2022-08-02T04:18:52.351Z,17.84
2022-08-02T04:21:25.692Z,17.91
2022-08-02T04:23:57.133Z,17.99
2022-08-02T04:26:28.495Z,18.09
2022-08-02T04:28:59.815Z,18.20
2022-08-02T04:31:30.009Z,18.24
2022-08-02T04:34:01.477Z,18.27
2022-08-02T04:36:32.039Z,18.32
2022-08-02T04:39:06.483Z,18.40
2022-08-02T04:41:44.265Z,18.43
2022-08-02T04:44:14.315Z,18.50
2022-08-02T04:46:46.576Z,18.52
2022-08-02T04:49:17.561Z,18.58
2022-08-02T04:51:47.068Z,18.58
2022-08-02T04:54:16.466Z,18.61
2022-08-02T04:56:45.693Z,18.67
2022-08-02T04:59:15.018Z,18.68
2022-08-02T05:01:44.522Z,18.71
2022-08-02T05:04:16.342Z,18.75
2022-08-02T05:06:46.621Z,18.87
2022-08-02T05:09:15.935Z,18.92
2022-08-02T05:11:45.395Z,19.01
2022-08-02T05:14:24.403Z,19.09
2022-08-02T05:16:54.663Z,19.19
2022-08-02T05:19:25.318Z,19.15
2022-08-02T05:21:54.560Z,19.23
2022-08-02T05:24:23.807Z,19.41
2022-08-02T05:26:53.001Z,19.55
2022-08-02T05:29:23.257Z,19.75
2022-08-02T05:31:52.628Z,19.96
2022-08-02T05:34:22.111Z,20.17
2022-08-02T05:36:52.715Z,20.34
2022-08-02T05:39:21.964Z,20.49
2022-08-02T05:41:52.401Z,20.59
2022-08-02T05:44:22.104Z,20.75
2022-08-02T05:46:51.400Z,20.86
2022-08-02T05:49:20.837Z,20.88
2022-08-02T05:52:05.487Z,20.94
2022-08-02T05:54:47.114Z,20.98
2022-08-02T05:57:27.568Z,20.97
2022-08-02T06:00:09.382Z,20.96
2022-08-02T06:03:17.935Z,20.94
2022-08-02T06:06:00.058Z,20.95
2022-08-02T06:08:43.475Z,21.02
2022-08-02T06:11:22.564Z,21.12
2022-08-02T06:13:54.605Z,21.18
2022-08-02T06:16:32.511Z,21.33
2022-08-02T06:19:04.107Z,21.56
2022-08-02T06:22:32.329Z,21.81
2022-08-02T06:24:34.835Z,21.90
2022-08-02T06:27:04.732Z,21.94
2022-08-02T06:29:38.877Z,22.05
2022-08-02T06:32:09.965Z,22.29
2022-08-02T06:34:40.002Z,22.38
2022-08-02T06:37:17.760Z,22.48
2022-08-02T06:39:50.961Z,22.55
2022-08-02T06:42:27.726Z,22.65
2022-08-02T06:44:58.811Z,22.47
2022-08-02T06:47:28.256Z,22.14
2022-08-02T06:49:58.456Z,22.16
2022-08-02T06:52:31.236Z,22.44
2022-08-02T06:55:05.416Z,22.53
2022-08-02T06:57:35.559Z,22.67
2022-08-02T07:00:09.179Z,22.80
2022-08-02T07:02:39.858Z,22.95
2022-08-02T07:05:10.492Z,23.11
2022-08-02T07:07:39.787Z,23.10
2022-08-02T07:10:11.124Z,23.29
2022-08-02T07:12:40.901Z,23.47
2022-08-02T07:15:12.683Z,23.77
2022-08-02T07:17:41.962Z,23.86
2022-08-02T07:20:11.792Z,23.97
2022-08-02T07:22:40.990Z,23.80
2022-08-02T07:25:13.276Z,23.82
2022-08-02T07:27:42.852Z,23.85
2022-08-02T07:30:13.452Z,23.80
2022-08-02T07:32:42.734Z,23.77
2022-08-02T07:35:14.482Z,23.84
2022-08-02T07:37:55.388Z,24.00
2022-08-02T07:40:30.659Z,24.20
2022-08-02T07:43:03.915Z,24.32
2022-08-02T07:45:36.107Z,24.50
2022-08-02T07:48:14.879Z,24.69
2022-08-02T07:50:44.114Z,24.92
2022-08-02T07:53:13.316Z,25.17
2022-08-02T07:55:44.071Z,25.36
2022-08-02T07:58:13.826Z,25.54
2022-08-02T08:00:44.546Z,25.56
2022-08-02T08:03:14.304Z,25.61
2022-08-02T08:05:43.928Z,25.70
2022-08-02T08:08:17.319Z,25.77
2022-08-02T08:10:49.006Z,25.99
2022-08-02T08:13:18.247Z,26.22
2022-08-02T08:15:51.585Z,26.23
2022-08-02T08:18:22.621Z,26.24
2022-08-02T08:20:52.229Z,26.44
2022-08-02T08:23:21.494Z,26.69
2022-08-02T08:25:52.390Z,26.88
2022-08-02T08:28:21.656Z,27.06
2022-08-02T08:30:51.235Z,27.15
2022-08-02T08:33:20.564Z,27.17
2022-08-02T08:36:02.590Z,27.24
2022-08-02T08:38:32.221Z,27.36
2022-08-02T08:41:02.970Z,27.56
2022-08-02T08:43:32.761Z,27.85
2022-08-02T08:46:01.999Z,28.37
2022-08-02T08:48:34.413Z,28.80
2022-08-02T08:51:18.513Z,29.14
2022-08-02T08:53:50.561Z,29.45
2022-08-02T08:56:22.558Z,29.74
2022-08-02T08:58:51.907Z,29.79
2022-08-02T09:01:21.715Z,29.70
2022-08-02T09:03:51.107Z,29.71
2022-08-02T09:06:20.887Z,29.55
2022-08-02T09:08:50.217Z,29.66
2022-08-02T09:11:26.374Z,29.09
2022-08-02T09:13:58.778Z,29.65
2022-08-02T09:16:37.102Z,30.04
2022-08-02T09:19:21.341Z,30.06
2022-08-02T09:21:52.151Z,30.15
2022-08-02T09:24:23.632Z,29.70
2022-08-02T09:26:54.374Z,30.13
2022-08-02T09:29:25.611Z,30.38
2022-08-02T09:32:04.690Z,30.57
2022-08-02T09:34:50.805Z,30.44
2022-08-02T09:37:25.521Z,29.60
2022-08-02T09:39:58.399Z,29.99
2022-08-02T09:42:30.945Z,30.15
2022-08-02T09:45:02.620Z,30.18
2022-08-02T09:47:37.360Z,30.28
2022-08-02T09:50:14.624Z,30.41
2022-08-02T09:52:45.256Z,30.50
2022-08-02T09:55:14.523Z,30.00
2022-08-02T09:57:50.988Z,30.16
2022-08-02T10:00:37.233Z,30.32
2022-08-02T10:03:16.706Z,30.26
2022-08-02T10:05:56.059Z,29.90
2022-08-02T10:08:33.425Z,29.95
2022-08-02T10:11:03.948Z,30.04
2022-08-02T10:13:37.440Z,29.97
2022-08-02T10:16:08.332Z,29.94
2022-08-02T10:18:39.798Z,30.04
2022-08-02T10:21:16.291Z,30.28
2022-08-02T10:23:48.509Z,30.47
2022-08-02T10:26:20.836Z,29.95
2022-08-02T10:28:55.400Z,29.83
2022-08-02T10:31:31.441Z,29.16
2022-08-02T10:34:04.419Z,29.66
2022-08-02T10:36:36.833Z,30.11
2022-08-02T10:39:06.402Z,29.76
2022-08-02T10:41:47.954Z,29.84
2022-08-02T10:44:28.278Z,29.95
2022-08-02T10:47:26.233Z,29.86
2022-08-02T10:49:57.766Z,29.94
2022-08-02T10:52:28.985Z,30.03
2022-08-02T10:55:01.212Z,30.22
2022-08-02T10:57:35.369Z,30.74
2022-08-02T11:00:13.966Z,31.22
2022-08-02T11:02:53.223Z,31.87
2022-08-02T11:05:42.885Z,32.75
2022-08-02T11:08:21.646Z,33.87
2022-08-02T11:10:50.938Z,34.73
2022-08-02T11:13:20.702Z,34.55
2022-08-02T11:16:10.797Z,33.67
2022-08-02T11:19:07.240Z,33.82
2022-08-02T11:21:37.586Z,34.33
2022-08-02T11:24:31.183Z,34.23
2022-08-02T11:27:02.095Z,34.28
2022-08-02T11:29:39.286Z,34.42
2022-08-02T11:32:18.065Z,34.48
2022-08-02T11:34:49.441Z,33.60
2022-08-02T11:37:30.242Z,34.06
2022-08-02T11:39:59.765Z,34.16
2022-08-02T11:42:33.989Z,33.88
2022-08-02T11:45:04.007Z,34.31
2022-08-02T11:47:35.042Z,34.19
2022-08-02T11:50:08.827Z,33.62
2022-08-02T11:52:39.439Z,33.46
2022-08-02T11:55:11.416Z,33.46
2022-08-02T11:58:03.472Z,33.72
2022-08-02T12:00:31.088Z,33.78
2022-08-02T12:03:01.882Z,34.10
2022-08-02T12:06:05.684Z,31.95
2022-08-02T12:08:25.154Z,33.31
2022-08-02T12:10:54.896Z,33.48
2022-08-02T12:13:24.180Z,33.88
2022-08-02T12:15:53.515Z,33.75
2022-08-02T12:18:42.290Z,33.97
2022-08-02T12:21:24.071Z,33.61
2022-08-02T12:24:00.601Z,33.50
2022-08-02T12:26:31.067Z,33.66
2022-08-02T12:29:02.522Z,34.23
2022-08-02T12:31:56.912Z,34.60
2022-08-02T12:34:32.580Z,35.05
2022-08-02T12:37:05.179Z,36.46
2022-08-02T12:39:41.802Z,36.94
2022-08-02T12:42:16.308Z,36.91
2022-08-02T12:44:54.622Z,36.48
2022-08-02T12:47:24.177Z,36.88
2022-08-02T12:50:17.039Z,37.35
2022-08-02T12:52:47.145Z,37.48
2022-08-02T12:55:20.004Z,38.61
2022-08-02T12:57:59.064Z,38.65
2022-08-02T13:00:31.483Z,38.23
2022-08-02T13:03:01.993Z,37.19
2022-08-02T13:05:53.613Z,36.57
2022-08-02T13:08:25.317Z,36.20
2022-08-02T13:10:54.482Z,36.13
2022-08-02T13:13:23.766Z,36.98
2022-08-02T13:15:53.088Z,38.20
2022-08-02T13:18:22.998Z,40.35
2022-08-02T13:20:53.794Z,41.94
2022-08-02T13:23:24.565Z,41.24
2022-08-02T13:26:13.812Z,39.46
2022-08-02T13:28:43.181Z,38.29
2022-08-02T13:31:35.297Z,37.93
2022-08-02T13:34:02.812Z,38.38
2022-08-02T13:36:34.542Z,38.38
2022-08-02T13:39:09.302Z,39.26
2022-08-02T13:41:39.246Z,39.47
2022-08-02T13:44:11.110Z,40.58
2022-08-02T13:46:45.603Z,41.91
2022-08-02T13:49:19.279Z,40.40
2022-08-02T13:51:50.674Z,38.83
2022-08-02T13:54:19.832Z,37.18
2022-08-02T13:56:49.350Z,35.97
2022-08-02T13:59:53.906Z,35.20
2022-08-02T14:02:08.451Z,34.41
2022-08-02T14:04:39.094Z,33.90
2022-08-02T14:07:09.808Z,33.27
2022-08-02T14:09:39.091Z,33.21
2022-08-02T14:12:11.185Z,33.22
2022-08-02T14:14:40.889Z,33.61
2022-08-02T14:17:11.203Z,34.27
2022-08-02T14:19:40.759Z,36.76
2022-08-02T14:22:12.471Z,40.90
2022-08-02T14:24:42.683Z,41.51
2022-08-02T14:27:12.304Z,40.80
2022-08-02T14:29:41.577Z,37.64
2022-08-02T14:32:11.390Z,34.31
2022-08-02T14:34:40.922Z,32.21
2022-08-02T14:37:12.030Z,30.95
2022-08-02T14:39:43.449Z,30.19
2022-08-02T14:42:29.823Z,29.55
2022-08-02T14:44:59.041Z,28.77
2022-08-02T14:47:28.300Z,27.88
2022-08-02T14:49:57.566Z,27.36
2022-08-02T14:52:28.328Z,26.83
2022-08-02T14:54:57.574Z,26.52
2022-08-02T14:57:27.456Z,26.86
2022-08-02T14:59:56.937Z,27.43
2022-08-02T15:02:26.239Z,27.95
2022-08-02T15:04:55.692Z,28.64
2022-08-02T15:07:25.107Z,30.35
2022-08-02T15:09:56.077Z,32.17
2022-08-02T15:12:25.362Z,33.35
2022-08-02T15:14:54.652Z,31.11
2022-08-02T15:17:27.031Z,29.13
2022-08-02T15:20:01.088Z,28.52
2022-08-02T15:22:35.406Z,30.98
2022-08-02T15:25:14.710Z,33.56
2022-08-02T15:27:45.034Z,36.00
2022-08-02T15:30:15.003Z,37.15
2022-08-02T15:32:53.045Z,37.73
2022-08-02T15:35:29.429Z,37.24
2022-08-02T15:38:02.724Z,36.84
2022-08-02T15:40:35.506Z,37.91
2022-08-02T15:43:07.055Z,37.50
2022-08-02T15:45:37.116Z,38.12
2022-08-02T15:48:07.543Z,38.10
2022-08-02T15:50:36.897Z,38.36
2022-08-02T15:53:06.176Z,37.31
2022-08-02T15:55:52.151Z,33.93
2022-08-02T15:58:28.393Z,29.47
2022-08-02T16:00:58.108Z,27.92
2022-08-02T16:03:28.833Z,27.71
2022-08-02T16:05:58.248Z,30.23
2022-08-02T16:08:27.636Z,32.14
2022-08-02T16:11:02.792Z,34.39
2022-08-02T16:13:53.053Z,35.85
2022-08-02T16:16:23.913Z,36.95
2022-08-02T16:18:53.658Z,36.90
2022-08-02T16:21:24.866Z,37.26
2022-08-02T16:24:01.644Z,33.56
2022-08-02T16:26:34.905Z,34.79
2022-08-02T16:29:06.054Z,34.80
2022-08-02T16:31:38.715Z,34.99
2022-08-02T16:34:11.507Z,35.67
2022-08-02T16:36:40.746Z,38.02
2022-08-02T16:39:10.115Z,38.29
2022-08-02T16:41:51.037Z,37.30
2022-08-02T16:44:26.917Z,33.24
2022-08-02T16:47:01.165Z,33.91
2022-08-02T16:50:07.021Z,36.55
2022-08-02T16:52:21.419Z,37.61
2022-08-02T16:54:51.824Z,38.62
2022-08-02T16:57:42.793Z,39.27
2022-08-02T17:00:16.233Z,37.78
2022-08-02T17:02:47.085Z,34.54
2022-08-02T17:05:16.955Z,33.45
2022-08-02T17:08:15.651Z,35.64
2022-08-02T17:10:37.560Z,36.89
2022-08-02T17:13:11.379Z,36.93
2022-08-02T17:16:01.054Z,36.60
2022-08-02T17:18:42.451Z,37.01
2022-08-02T17:21:14.081Z,36.54
2022-08-02T17:24:05.073Z,37.10
2022-08-02T17:26:37.841Z,37.20
2022-08-02T17:29:15.249Z,35.03
2022-08-02T17:32:05.794Z,34.16
2022-08-02T17:34:38.833Z,33.39
2022-08-02T17:37:08.466Z,34.55
2022-08-02T17:39:44.347Z,35.55
2022-08-02T17:42:29.023Z,35.07
2022-08-02T17:45:16.375Z,34.31
2022-08-02T17:48:04.772Z,32.66
2022-08-02T17:50:35.070Z,30.43
2022-08-02T17:53:06.272Z,28.79
2022-08-02T17:55:42.844Z,27.60
2022-08-02T17:58:13.547Z,26.85
2022-08-02T18:00:46.463Z,26.36
2022-08-02T18:03:16.796Z,26.04
2022-08-02T18:05:53.518Z,25.74
2022-08-02T18:08:25.154Z,25.48
2022-08-02T18:10:57.153Z,25.28
2022-08-02T18:13:28.512Z,25.06
2022-08-02T18:16:04.453Z,24.75
2022-08-02T18:18:33.771Z,24.55
2022-08-02T18:21:15.322Z,24.26
2022-08-02T18:23:48.676Z,23.86
2022-08-02T18:26:20.799Z,23.59
2022-08-02T18:28:50.374Z,23.44
2022-08-02T18:31:22.334Z,23.36
2022-08-02T18:34:12.020Z,23.08
2022-08-02T18:36:47.324Z,22.73
2022-08-02T18:39:18.771Z,22.72
2022-08-02T18:41:50.372Z,22.78
2022-08-02T18:47:26.397Z,22.74
2022-08-02T18:50:02.641Z,22.72
2022-08-02T18:52:32.655Z,22.69
2022-08-02T18:55:06.300Z,22.48
2022-08-02T18:58:19.405Z,22.35
2022-08-02T19:00:30.939Z,22.14
2022-08-02T19:03:01.956Z,22.03
2022-08-02T19:05:53.482Z,21.94
2022-08-02T19:08:25.522Z,21.87
2022-08-02T19:10:57.357Z,21.94
2022-08-02T19:13:26.705Z,21.86
2022-08-02T19:15:56.173Z,22.17
2022-08-02T19:18:30.121Z,21.93
2022-08-02T19:21:05.746Z,21.57
2022-08-02T19:23:37.135Z,21.72
2022-08-02T19:26:23.789Z,21.54
2022-08-02T19:28:55.185Z,21.57
2022-08-02T19:31:24.558Z,21.34
2022-08-02T19:34:07.953Z,21.13
2022-08-02T19:36:40.307Z,21.02
2022-08-02T19:39:11.481Z,21.10
2022-08-02T19:41:46.913Z,21.03
2022-08-02T19:44:22.841Z,21.00
2022-08-02T19:46:58.401Z,20.98
2022-08-02T19:49:39.448Z,21.07
2022-08-02T19:52:21.846Z,21.17
2022-08-02T19:54:55.689Z,21.23
2022-08-02T19:57:26.875Z,21.27
2022-08-02T19:59:58.530Z,21.16
2022-08-02T20:02:28.051Z,21.22
2022-08-02T20:05:00.873Z,21.18
2022-08-02T20:07:54.556Z,20.78
2022-08-02T20:10:27.821Z,20.60
2022-08-02T20:12:59.636Z,20.45
2022-08-02T20:15:56.131Z,20.44
2022-08-02T20:18:26.700Z,20.37
2022-08-02T20:20:59.780Z,20.41
2022-08-02T20:23:33.879Z,20.57
2022-08-02T20:26:06.460Z,20.46
2022-08-02T20:28:38.453Z,20.24
2022-08-02T20:31:09.436Z,20.10
2022-08-02T20:33:55.986Z,19.94
2022-08-02T20:36:30.011Z,19.89
2022-08-02T20:38:59.288Z,19.85
2022-08-02T20:41:37.173Z,19.87
2022-08-02T20:44:31.233Z,19.85
2022-08-02T20:47:01.555Z,19.66
2022-08-02T20:49:41.097Z,19.54
2022-08-02T20:52:23.630Z,19.43
2022-08-02T20:54:53.845Z,19.56
2022-08-02T20:57:36.151Z,19.54
2022-08-02T21:00:13.832Z,19.57
2022-08-02T21:02:43.689Z,19.38
2022-08-02T21:08:05.332Z,19.34
2022-08-02T21:10:34.724Z,19.21
2022-08-02T21:13:19.067Z,19.19
2022-08-02T21:15:52.072Z,19.23
2022-08-02T21:18:33.270Z,19.17
2022-08-02T21:21:11.191Z,19.14
2022-08-02T21:23:48.872Z,19.25
2022-08-02T21:26:28.543Z,19.15
2022-08-02T21:29:01.004Z,19.26
2022-08-02T21:31:35.625Z,19.21
2022-08-02T21:34:21.828Z,19.11
2022-08-02T21:36:54.902Z,19.11
2022-08-02T21:39:26.636Z,19.08
2022-08-02T21:41:55.865Z,19.02
2022-08-02T21:44:25.340Z,18.98
2022-08-02T21:46:57.622Z,18.82
2022-08-02T21:50:09.573Z,18.79
2022-08-02T21:52:18.990Z,18.75
2022-08-02T21:54:50.231Z,18.82
2022-08-02T21:57:20.162Z,18.73
2022-08-02T21:59:52.966Z,18.72
2022-08-02T22:02:30.694Z,18.71
2022-08-02T22:05:02.726Z,18.77
2022-08-02T22:07:38.244Z,18.60
2022-08-02T22:10:10.433Z,18.66
2022-08-02T22:12:40.628Z,18.63
2022-08-02T22:15:11.816Z,18.60
2022-08-02T22:17:53.550Z,18.59
2022-08-02T22:20:29.411Z,18.58
2022-08-02T22:22:58.579Z,18.49
2022-08-02T22:25:36.687Z,18.49
2022-08-02T22:28:35.716Z,18.64
2022-08-02T22:31:00.146Z,18.57
2022-08-02T22:34:01.016Z,18.38
2022-08-02T22:36:31.551Z,18.28
2022-08-02T22:39:01.954Z,18.16
2022-08-02T22:42:01.682Z,18.13
2022-08-02T22:44:23.186Z,17.98
2022-08-02T22:46:52.426Z,18.03
2022-08-02T22:49:38.538Z,18.10
2022-08-02T22:52:10.853Z,17.97
2022-08-02T22:54:40.403Z,17.85
2022-08-02T22:57:11.367Z,17.76
2022-08-02T22:59:06.043Z,19.33
2022-08-02T22:59:41.636Z,17.77
2022-08-02T23:02:11.211Z,17.72
2022-08-02T23:04:40.626Z,17.62
2022-08-02T23:07:09.778Z,17.64
2022-08-02T23:09:39.218Z,17.62
2022-08-02T23:12:10.391Z,17.70
2022-08-02T23:14:39.609Z,17.62
2022-08-02T23:17:26.444Z,17.77
2022-08-02T23:19:55.662Z,17.63
2022-08-02T23:22:29.382Z,17.70
2022-08-02T23:25:00.719Z,17.72
2022-08-02T23:27:31.870Z,17.75
2022-08-02T23:30:01.332Z,17.85
2022-08-02T23:32:30.620Z,17.86
2022-08-02T23:34:59.866Z,17.80
2022-08-02T23:37:29.079Z,17.76
2022-08-02T23:40:39.342Z,17.75
2022-08-02T23:43:13.402Z,17.66
2022-08-02T23:45:46.350Z,17.66
2022-08-02T23:48:15.860Z,17.57
2022-08-02T23:50:45.075Z,17.63
2022-08-02T23:53:14.290Z,17.60
2022-08-02T23:55:43.423Z,17.67
2022-08-02T23:58:14.885Z,17.60
